Susan Ann — WCY5700 — position and weather

sailwx.info

Track history (hours):
 
Tides and Currents Weather Stations Pressure Air Temp Water Temp Dewpoint Dewpoint Depression Visibility Wind Speed Wind Dir Waves Ship Positions

Susan Ann

Owner: CROSS SOUND FERRY SERVICES INC, NEW LONDON, CT. More information available from US FCC via Universal Licensing System and Coast Guard Vessel Documentation Center.

Last reported at 2014-Oct-31 00:33 UTC. Time now 2014-Oct-31 05:36 UTC.
Position N 41°09' W 072°14'.

Length 72 m; draft 4 m.

Type: Passenger vessel. MMSI: 367354350.

Date/timePositionNaut miles runAvg speedWind from/ knotsBaromVisibWave heightAir tempDewpointWater temp
2014-Oct-31 00:33N 41°09' W 072°14'9 9.3
2014-Oct-30 23:34N 41°16' W 072°07'5 5.0
2014-Oct-30 22:34N 41°21' W 072°06'9 9.3
2014-Oct-30 21:33N 41°13' W 072°10'5 4.7
2014-Oct-30 20:33N 41°09' W 072°14'9 8.6
2014-Oct-30 19:33N 41°16' W 072°07'5 5.5
2014-Oct-30 18:33N 41°21' W 072°06'10 9.7
2014-Oct-30 17:33N 41°13' W 072°11'4 4.2
2014-Oct-30 16:34N 41°09' W 072°14'9 8.5
2014-Oct-30 15:33N 41°16' W 072°07'6 5.8
2014-Oct-30 14:33N 41°21' W 072°06'0 0.0
2014-Oct-30 10:25N 41°21' W 072°06'0 0.0
2014-Oct-30 00:33N 41°21' W 072°06'1110.7
2014-Oct-29 23:33N 41°12' W 072°12'3 3.2
2014-Oct-29 22:34N 41°09' W 072°14'9 8.9
2014-Oct-29 21:33N 41°16' W 072°07'5 5.3
2014-Oct-29 20:33N 41°21' W 072°06'10 9.6
2014-Oct-29 19:34N 41°13' W 072°11'4 4.3
2014-Oct-29 18:33N 41°09' W 072°14'9 9.4
2014-Oct-29 17:33N 41°16' W 072°06'5 4.9
2014-Oct-29 16:33N 41°21' W 072°06'10 9.6
2014-Oct-29 15:33N 41°13' W 072°11'4 4.2
2014-Oct-29 14:33N 41°09' W 072°14'1211.9
2014-Oct-29 13:33N 41°19' W 072°05'1 0.8
2014-Oct-29 12:33N 41°20' W 072°05'1312.6
2014-Oct-29 11:34N 41°09' W 072°14'0 0.2
2014-Oct-29 10:34N 41°09' W 072°14'0 0.0
2014-Oct-29 00:31N 41°09' W 072°14'8 8.6
2014-Oct-28 23:34N 41°16' W 072°07'6 5.8
2014-Oct-28 22:33N 41°21' W 072°06'9 8.7
2014-Oct-28 21:33N 41°13' W 072°10'5 5.4
2014-Oct-28 20:33N 41°09' W 072°14'9 8.5
2014-Oct-28 19:33N 41°16' W 072°07'6 5.7
2014-Oct-28 18:33N 41°21' W 072°06'9 9.1
2014-Oct-28 17:33N 41°13' W 072°11'5 4.7
2014-Oct-28 16:33N 41°09' W 072°14'9 8.7
2014-Oct-28 15:34N 41°16' W 072°07'5 5.4
2014-Oct-28 14:34N 41°21' W 072°06'9 8.7
2014-Oct-28 13:34N 41°13' W 072°10'5 5.3
2014-Oct-28 12:33N 41°09' W 072°14'9 8.5
2014-Oct-28 11:33N 41°16' W 072°08'6 5.5
2014-Oct-28 10:33N 41°21' W 072°06'0 0.0
2014-Oct-28 01:31N 41°21' W 072°06'0 0.0
2014-Oct-28 00:34N 41°21' W 072°06'9 8.9
2014-Oct-27 23:33N 41°13' W 072°10'5 5.2
2014-Oct-27 22:33N 41°09' W 072°14'8 8.0
2014-Oct-27 21:33N 41°16' W 072°08'6 6.1
2014-Oct-27 20:33N 41°21' W 072°06'9 9.0
2014-Oct-27 19:34N 41°13' W 072°10'5 5.0
2014-Oct-27 18:34N 41°09' W 072°14'9 8.9
2014-Oct-27 17:33N 41°16' W 072°07'5 5.2
2014-Oct-27 16:33N 41°21' W 072°06'9 9.3
2014-Oct-27 15:33N 41°13' W 072°11'5 4.6
2014-Oct-27 14:33N 41°09' W 072°14'8 8.1
2014-Oct-27 13:33N 41°16' W 072°08'6 5.9
2014-Oct-27 12:33N 41°21' W 072°06'9 8.7
2014-Oct-27 11:34N 41°13' W 072°10'5 5.3
2014-Oct-27 10:33N 41°09' W 072°14'0 0.0
2014-Oct-27 02:20N 41°09' W 072°14'7 8.4
2014-Oct-27 01:33N 41°15' W 072°09'7 7.3
2014-Oct-27 00:33N 41°21' W 072°06'10 9.6
2014-Oct-26 23:34N 41°13' W 072°11'4 4.3
2014-Oct-26 22:33N 41°09' W 072°14'8 7.9
2014-Oct-26 21:33N 41°15' W 072°08'6 6.2
2014-Oct-26 20:33N 41°21' W 072°06'9 9.0
2014-Oct-26 19:33N 41°13' W 072°10'5 5.0
2014-Oct-26 18:33N 41°09' W 072°14'9 8.9
2014-Oct-26 17:33N 41°16' W 072°07'5 5.3
2014-Oct-26 16:33N 41°21' W 072°06'10 9.7
2014-Oct-26 15:33N 41°13' W 072°11'4 4.2
2014-Oct-26 14:33N 41°09' W 072°14'9 8.7
2014-Oct-26 13:33N 41°16' W 072°07'6 5.5
2014-Oct-26 12:33N 41°21' W 072°06'8 8.1
2014-Oct-26 11:33N 41°14' W 072°09'6 6.0
2014-Oct-26 10:33N 41°09' W 072°14'0 0.0
2014-Oct-26 00:22N 41°09' W 072°14'8 9.8
2014-Oct-25 23:33N 41°16' W 072°08'6 6.0
2014-Oct-25 22:33N 41°21' W 072°06'9 8.6
2014-Oct-25 21:33N 41°13' W 072°10'5 5.4
2014-Oct-25 20:33N 41°09' W 072°14'9 9.1
2014-Oct-25 19:33N 41°16' W 072°07'5 5.1
2014-Oct-25 18:33N 41°21' W 072°06'9 9.0
2014-Oct-25 17:34N 41°13' W 072°10'5 4.9
2014-Oct-25 16:33N 41°09' W 072°14'8 8.2
2014-Oct-25 15:34N 41°16' W 072°08'6 5.9
2014-Oct-25 14:34N 41°21' W 072°06'9 8.8
2014-Oct-25 13:34N 41°13' W 072°10'5 5.1
2014-Oct-25 12:33N 41°09' W 072°14'8 8.4
2014-Oct-25 11:33N 41°16' W 072°08'6 5.7
2014-Oct-25 10:33N 41°21' W 072°06'6 0.6
2014-Oct-25 01:33N 41°16' W 072°07'9 8.6
2014-Oct-25 00:33N 41°09' W 072°14'8 7.8
2014-Oct-24 23:34N 41°15' W 072°08'6 6.3
2014-Oct-24 22:33N 41°21' W 072°06'9 8.7
2014-Oct-24 21:33N 41°13' W 072°10'5 5.3
2014-Oct-24 20:33N 41°09' W 072°14'8 8.3
2014-Oct-24 19:34N 41°16' W 072°08'6 5.7
2014-Oct-24 18:32N 41°21' W 072°06'9 8.8
2014-Oct-24 17:34N 41°13' W 072°10'5 5.5
2014-Oct-24 16:33N 41°09' W 072°14'9 8.7
2014-Oct-24 15:33N 41°16' W 072°07'6 5.6
2014-Oct-24 14:33N 41°21' W 072°06'9 8.9
2014-Oct-24 13:33N 41°13' W 072°10'5 5.0
2014-Oct-24 12:33N 41°09' W 072°14'8 7.7
2014-Oct-24 11:33N 41°15' W 072°08'6 6.3
2014-Oct-24 10:33N 41°21' W 072°06'1 0.1
2014-Oct-24 00:17N 41°20' W 072°05'811.6
2014-Oct-23 23:33N 41°13' W 072°10'5 4.8
2014-Oct-23 22:34N 41°09' W 072°14'8 8.3
2014-Oct-23 21:33N 41°16' W 072°07'6 5.7
2014-Oct-23 20:33N 41°21' W 072°06'9 9.2
2014-Oct-23 19:33N 41°13' W 072°10'5 4.8
2014-Oct-23 18:33N 41°09' W 072°14'9 8.9
2014-Oct-23 17:33N 41°16' W 072°07'5 5.3
2014-Oct-23 16:33N 41°21' W 072°06'9 8.6
2014-Oct-23 15:33N 41°13' W 072°10'5 5.3
2014-Oct-23 14:33N 41°09' W 072°14'1111.3
2014-Oct-23 13:33N 41°18' W 072°05'1 1.0
2014-Oct-23 12:33N 41°17' W 072°06'1010.4
2014-Oct-23 11:34N 41°09' W 072°14'0 0.1
2014-Oct-23 10:33N 41°09' W 072°14'0 0.0
2014-Oct-23 00:17N 41°09' W 072°14'811.2
2014-Oct-22 23:34N 41°16' W 072°08'6 5.9
2014-Oct-22 22:34N 41°21' W 072°05'10 9.6
2014-Oct-22 21:33N 41°13' W 072°11'4 4.3
2014-Oct-22 20:34N 41°09' W 072°14'8 8.4
2014-Oct-22 19:33N 41°16' W 072°08'6 5.6
2014-Oct-22 18:33N 41°21' W 072°06'9 9.1
2014-Oct-22 17:34N 41°13' W 072°10'5 4.9
2014-Oct-22 16:33N 41°09' W 072°14'8 7.9
2014-Oct-22 15:33N 41°16' W 072°08'6 6.1
2014-Oct-22 14:33N 41°21' W 072°06'9 9.0
2014-Oct-22 13:33N 41°13' W 072°10'5 4.9
2014-Oct-22 12:33N 41°09' W 072°14'9 8.6
2014-Oct-22 11:33N 41°16' W 072°07'6 5.5
2014-Oct-22 10:33N 41°21' W 072°06'0 0.0
2014-Oct-22 00:30N 41°21' W 072°06'9 9.2
2014-Oct-21 23:33N 41°13' W 072°10'5 5.3
2014-Oct-21 22:33N 41°09' W 072°14'8 7.9
2014-Oct-21 21:34N 41°15' W 072°08'6 6.2
2014-Oct-21 20:33N 41°21' W 072°06'9 8.9
2014-Oct-21 19:33N 41°13' W 072°10'5 5.1
2014-Oct-21 18:33N 41°09' W 072°14'9 9.2
2014-Oct-21 17:33N 41°16' W 072°07'5 5.0
2014-Oct-21 16:33N 41°21' W 072°06'9 9.3
2014-Oct-21 15:34N 41°13' W 072°11'5 4.5
2014-Oct-21 14:33N 41°09' W 072°14'1211.8
2014-Oct-21 13:33N 41°19' W 072°05'0 0.4
2014-Oct-21 12:33N 41°18' W 072°05'1211.5
2014-Oct-21 11:33N 41°09' W 072°14'0 0.2
2014-Oct-21 10:33N 41°09' W 072°14'1 0.1
2014-Oct-21 00:33N 41°10' W 072°13'  
Track history (hours):
 
Tides and Currents Weather Stations Pressure Air Temp Water Temp Dewpoint Dewpoint Depression Visibility Wind Speed Wind Dir Waves Ship Positions

Susan Ann

Owner: CROSS SOUND FERRY SERVICES INC, NEW LONDON, CT. More information available from US FCC via Universal Licensing System and Coast Guard Vessel Documentation Center.

Last reported at 2014-Oct-31 00:33 UTC. Time now 2014-Oct-31 05:36 UTC.
Position N 41°09' W 072°14'.

Length 72 m; draft 4 m.

Type: Passenger vessel. MMSI: 367354350.

Date/timePositionNaut miles runAvg speedWind from/ knotsBaromVisibWave heightAir tempDewpointWater temp
2014-Oct-31 00:33N 41°09' W 072°14'9 9.3
2014-Oct-30 23:34N 41°16' W 072°07'5 5.0
2014-Oct-30 22:34N 41°21' W 072°06'9 9.3
2014-Oct-30 21:33N 41°13' W 072°10'5 4.7
2014-Oct-30 20:33N 41°09' W 072°14'9 8.6
2014-Oct-30 19:33N 41°16' W 072°07'5 5.5
2014-Oct-30 18:33N 41°21' W 072°06'10 9.7
2014-Oct-30 17:33N 41°13' W 072°11'4 4.2
2014-Oct-30 16:34N 41°09' W 072°14'9 8.5
2014-Oct-30 15:33N 41°16' W 072°07'6 5.8
2014-Oct-30 14:33N 41°21' W 072°06'0 0.0
2014-Oct-30 10:25N 41°21' W 072°06'0 0.0
2014-Oct-30 00:33N 41°21' W 072°06'1110.7
2014-Oct-29 23:33N 41°12' W 072°12'3 3.2
2014-Oct-29 22:34N 41°09' W 072°14'9 8.9
2014-Oct-29 21:33N 41°16' W 072°07'5 5.3
2014-Oct-29 20:33N 41°21' W 072°06'10 9.6
2014-Oct-29 19:34N 41°13' W 072°11'4 4.3
2014-Oct-29 18:33N 41°09' W 072°14'9 9.4
2014-Oct-29 17:33N 41°16' W 072°06'5 4.9
2014-Oct-29 16:33N 41°21' W 072°06'10 9.6
2014-Oct-29 15:33N 41°13' W 072°11'4 4.2
2014-Oct-29 14:33N 41°09' W 072°14'1211.9
2014-Oct-29 13:33N 41°19' W 072°05'1 0.8
2014-Oct-29 12:33N 41°20' W 072°05'1312.6
2014-Oct-29 11:34N 41°09' W 072°14'0 0.2
2014-Oct-29 10:34N 41°09' W 072°14'0 0.0
2014-Oct-29 00:31N 41°09' W 072°14'8 8.6
2014-Oct-28 23:34N 41°16' W 072°07'6 5.8
2014-Oct-28 22:33N 41°21' W 072°06'9 8.7
2014-Oct-28 21:33N 41°13' W 072°10'5 5.4
2014-Oct-28 20:33N 41°09' W 072°14'9 8.5
2014-Oct-28 19:33N 41°16' W 072°07'6 5.7
2014-Oct-28 18:33N 41°21' W 072°06'9 9.1
2014-Oct-28 17:33N 41°13' W 072°11'5 4.7
2014-Oct-28 16:33N 41°09' W 072°14'9 8.7
2014-Oct-28 15:34N 41°16' W 072°07'5 5.4
2014-Oct-28 14:34N 41°21' W 072°06'9 8.7
2014-Oct-28 13:34N 41°13' W 072°10'5 5.3
2014-Oct-28 12:33N 41°09' W 072°14'9 8.5
2014-Oct-28 11:33N 41°16' W 072°08'6 5.5
2014-Oct-28 10:33N 41°21' W 072°06'0 0.0
2014-Oct-28 01:31N 41°21' W 072°06'0 0.0
2014-Oct-28 00:34N 41°21' W 072°06'9 8.9
2014-Oct-27 23:33N 41°13' W 072°10'5 5.2
2014-Oct-27 22:33N 41°09' W 072°14'8 8.0
2014-Oct-27 21:33N 41°16' W 072°08'6 6.1
2014-Oct-27 20:33N 41°21' W 072°06'9 9.0
2014-Oct-27 19:34N 41°13' W 072°10'5 5.0
2014-Oct-27 18:34N 41°09' W 072°14'9 8.9
2014-Oct-27 17:33N 41°16' W 072°07'5 5.2
2014-Oct-27 16:33N 41°21' W 072°06'9 9.3
2014-Oct-27 15:33N 41°13' W 072°11'5 4.6
2014-Oct-27 14:33N 41°09' W 072°14'8 8.1
2014-Oct-27 13:33N 41°16' W 072°08'6 5.9
2014-Oct-27 12:33N 41°21' W 072°06'9 8.7
2014-Oct-27 11:34N 41°13' W 072°10'5 5.3
2014-Oct-27 10:33N 41°09' W 072°14'0 0.0
2014-Oct-27 02:20N 41°09' W 072°14'7 8.4
2014-Oct-27 01:33N 41°15' W 072°09'7 7.3
2014-Oct-27 00:33N 41°21' W 072°06'10 9.6
2014-Oct-26 23:34N 41°13' W 072°11'4 4.3
2014-Oct-26 22:33N 41°09' W 072°14'8 7.9
2014-Oct-26 21:33N 41°15' W 072°08'6 6.2
2014-Oct-26 20:33N 41°21' W 072°06'9 9.0
2014-Oct-26 19:33N 41°13' W 072°10'5 5.0
2014-Oct-26 18:33N 41°09' W 072°14'9 8.9
2014-Oct-26 17:33N 41°16' W 072°07'5 5.3
2014-Oct-26 16:33N 41°21' W 072°06'10 9.7
2014-Oct-26 15:33N 41°13' W 072°11'4 4.2
2014-Oct-26 14:33N 41°09' W 072°14'9 8.7
2014-Oct-26 13:33N 41°16' W 072°07'6 5.5
2014-Oct-26 12:33N 41°21' W 072°06'8 8.1
2014-Oct-26 11:33N 41°14' W 072°09'6 6.0
2014-Oct-26 10:33N 41°09' W 072°14'0 0.0
2014-Oct-26 00:22N 41°09' W 072°14'8 9.8
2014-Oct-25 23:33N 41°16' W 072°08'6 6.0
2014-Oct-25 22:33N 41°21' W 072°06'9 8.6
2014-Oct-25 21:33N 41°13' W 072°10'5 5.4
2014-Oct-25 20:33N 41°09' W 072°14'9 9.1
2014-Oct-25 19:33N 41°16' W 072°07'5 5.1
2014-Oct-25 18:33N 41°21' W 072°06'9 9.0
2014-Oct-25 17:34N 41°13' W 072°10'5 4.9
2014-Oct-25 16:33N 41°09' W 072°14'8 8.2
2014-Oct-25 15:34N 41°16' W 072°08'6 5.9
2014-Oct-25 14:34N 41°21' W 072°06'9 8.8
2014-Oct-25 13:34N 41°13' W 072°10'5 5.1
2014-Oct-25 12:33N 41°09' W 072°14'8 8.4
2014-Oct-25 11:33N 41°16' W 072°08'6 5.7
2014-Oct-25 10:33N 41°21' W 072°06'6 0.6
2014-Oct-25 01:33N 41°16' W 072°07'9 8.6
2014-Oct-25 00:33N 41°09' W 072°14'8 7.8
2014-Oct-24 23:34N 41°15' W 072°08'6 6.3
2014-Oct-24 22:33N 41°21' W 072°06'9 8.7
2014-Oct-24 21:33N 41°13' W 072°10'5 5.3
2014-Oct-24 20:33N 41°09' W 072°14'8 8.3
2014-Oct-24 19:34N 41°16' W 072°08'6 5.7
2014-Oct-24 18:32N 41°21' W 072°06'9 8.8
2014-Oct-24 17:34N 41°13' W 072°10'5 5.5
2014-Oct-24 16:33N 41°09' W 072°14'9 8.7
2014-Oct-24 15:33N 41°16' W 072°07'6 5.6
2014-Oct-24 14:33N 41°21' W 072°06'9 8.9
2014-Oct-24 13:33N 41°13' W 072°10'5 5.0
2014-Oct-24 12:33N 41°09' W 072°14'8 7.7
2014-Oct-24 11:33N 41°15' W 072°08'6 6.3
2014-Oct-24 10:33N 41°21' W 072°06'1 0.1
2014-Oct-24 00:17N 41°20' W 072°05'811.6
2014-Oct-23 23:33N 41°13' W 072°10'5 4.8
2014-Oct-23 22:34N 41°09' W 072°14'8 8.3
2014-Oct-23 21:33N 41°16' W 072°07'6 5.7
2014-Oct-23 20:33N 41°21' W 072°06'9 9.2
2014-Oct-23 19:33N 41°13' W 072°10'5 4.8
2014-Oct-23 18:33N 41°09' W 072°14'9 8.9
2014-Oct-23 17:33N 41°16' W 072°07'5 5.3
2014-Oct-23 16:33N 41°21' W 072°06'9 8.6
2014-Oct-23 15:33N 41°13' W 072°10'5 5.3
2014-Oct-23 14:33N 41°09' W 072°14'1111.3
2014-Oct-23 13:33N 41°18' W 072°05'1 1.0
2014-Oct-23 12:33N 41°17' W 072°06'1010.4
2014-Oct-23 11:34N 41°09' W 072°14'0 0.1
2014-Oct-23 10:33N 41°09' W 072°14'0 0.0
2014-Oct-23 00:17N 41°09' W 072°14'811.2
2014-Oct-22 23:34N 41°16' W 072°08'6 5.9
2014-Oct-22 22:34N 41°21' W 072°05'10 9.6
2014-Oct-22 21:33N 41°13' W 072°11'4 4.3
2014-Oct-22 20:34N 41°09' W 072°14'8 8.4
2014-Oct-22 19:33N 41°16' W 072°08'6 5.6
2014-Oct-22 18:33N 41°21' W 072°06'9 9.1
2014-Oct-22 17:34N 41°13' W 072°10'5 4.9
2014-Oct-22 16:33N 41°09' W 072°14'8 7.9
2014-Oct-22 15:33N 41°16' W 072°08'6 6.1
2014-Oct-22 14:33N 41°21' W 072°06'9 9.0
2014-Oct-22 13:33N 41°13' W 072°10'5 4.9
2014-Oct-22 12:33N 41°09' W 072°14'9 8.6
2014-Oct-22 11:33N 41°16' W 072°07'6 5.5
2014-Oct-22 10:33N 41°21' W 072°06'0 0.0
2014-Oct-22 00:30N 41°21' W 072°06'9 9.2
2014-Oct-21 23:33N 41°13' W 072°10'5 5.3
2014-Oct-21 22:33N 41°09' W 072°14'8 7.9
2014-Oct-21 21:34N 41°15' W 072°08'6 6.2
2014-Oct-21 20:33N 41°21' W 072°06'9 8.9
2014-Oct-21 19:33N 41°13' W 072°10'5 5.1
2014-Oct-21 18:33N 41°09' W 072°14'9 9.2
2014-Oct-21 17:33N 41°16' W 072°07'5 5.0
2014-Oct-21 16:33N 41°21' W 072°06'9 9.3
2014-Oct-21 15:34N 41°13' W 072°11'5 4.5
2014-Oct-21 14:33N 41°09' W 072°14'1211.8
2014-Oct-21 13:33N 41°19' W 072°05'0 0.4
2014-Oct-21 12:33N 41°18' W 072°05'1211.5
2014-Oct-21 11:33N 41°09' W 072°14'0 0.2
2014-Oct-21 10:33N 41°09' W 072°14'1 0.1
2014-Oct-21 00:33N 41°10' W 072°13'  

Dump ship's entire track history